createdAt,value
2018-12-20T00:01:40.036Z,100015.95
2018-12-20T00:04:06.857Z,100016.44
2018-12-20T00:06:33.147Z,100011.36
2018-12-20T00:08:59.391Z,100013.19
2018-12-20T00:11:25.778Z,100011.42
2018-12-20T00:13:52.011Z,100015.16
2018-12-20T00:16:18.469Z,100012.78
2018-12-20T00:18:44.703Z,100017.72
2018-12-20T00:21:10.991Z,100010.05
2018-12-20T00:23:37.236Z,100015.36
2018-12-20T00:26:03.804Z,100018.01
2018-12-20T00:28:30.176Z,100019.11
2018-12-20T00:30:56.656Z,100014.57
2018-12-20T00:33:23.228Z,100019.64
2018-12-20T00:35:49.540Z,100017.95
2018-12-20T00:38:15.845Z,100013.31
2018-12-20T00:40:42.786Z,100015.45
2018-12-20T00:43:09.079Z,100011.83
2018-12-20T00:45:35.286Z,100020.13
2018-12-20T00:48:02.021Z,100012.26
2018-12-20T00:50:28.281Z,100021.48
2018-12-20T00:52:54.662Z,100013.89
2018-12-20T00:55:21.210Z,100012.68
2018-12-20T00:57:47.476Z,100011.77
2018-12-20T01:00:14.018Z,100020.77
2018-12-20T01:02:40.683Z,100016.92
2018-12-20T01:05:07.081Z,100022.04
2018-12-20T01:07:33.351Z,100020.19
2018-12-20T01:09:59.999Z,100023.39
2018-12-20T01:12:26.388Z,100028.84
2018-12-20T01:14:52.582Z,100022.03
2018-12-20T01:17:19.240Z,100024.94
2018-12-20T01:19:45.508Z,100024.86
2018-12-20T01:22:11.705Z,100017.41
2018-12-20T01:24:38.344Z,100021.84
2018-12-20T01:27:04.640Z,100028.77
2018-12-20T01:29:30.707Z,100029.98
2018-12-20T01:31:57.172Z,100029.79
2018-12-20T01:34:23.901Z,100024.16
2018-12-20T01:36:50.182Z,100030.13
2018-12-20T01:39:17.334Z,100035.02
2018-12-20T01:41:43.848Z,100034.98
2018-12-20T01:44:10.379Z,100028.13
2018-12-20T01:46:36.904Z,100028.77
2018-12-20T01:49:03.288Z,100024.80
2018-12-20T01:51:29.600Z,100029.20
2018-12-20T01:53:56.187Z,100032.46
2018-12-20T01:56:22.606Z,100034.09
2018-12-20T01:58:48.963Z,100027.75
2018-12-20T02:01:15.652Z,100036.35
2018-12-20T02:06:14.883Z,100024.63
2018-12-20T02:08:41.431Z,100028.19
2018-12-20T02:11:07.801Z,100023.30
2018-12-20T02:13:34.162Z,100023.95
2018-12-20T02:16:00.366Z,100017.52
2018-12-20T02:18:26.663Z,100016.27
2018-12-20T02:20:52.961Z,100017.06
2018-12-20T02:23:19.427Z,100023.58
2018-12-20T02:25:45.731Z,100019.95
2018-12-20T02:28:12.379Z,100023.50
2018-12-20T02:30:39.407Z,100019.29
2018-12-20T02:33:05.892Z,100021.88
2018-12-20T02:35:32.627Z,100022.30
2018-12-20T02:37:59.088Z,100020.86
2018-12-20T02:40:25.421Z,100019.03
2018-12-20T02:42:51.511Z,100013.55
2018-12-20T02:45:17.991Z,100017.66
2018-12-20T02:47:44.330Z,100017.63
2018-12-20T02:50:10.758Z,100013.00
2018-12-20T02:52:37.600Z,100014.44
2018-12-20T02:55:04.150Z,100012.77
2018-12-20T02:57:30.519Z,100008.80
2018-12-20T02:59:57.403Z,100001.41
2018-12-20T03:02:24.045Z,100003.14
2018-12-20T03:04:50.733Z,99994.28
2018-12-20T03:07:17.488Z,99998.48
2018-12-20T03:09:43.941Z,99998.80
2018-12-20T03:12:10.358Z,99997.10
2018-12-20T03:14:37.010Z,99995.78
2018-12-20T03:17:03.389Z,99993.37
2018-12-20T03:19:29.726Z,99996.39
2018-12-20T03:21:56.147Z,99999.00
2018-12-20T03:24:22.450Z,99995.82
2018-12-20T03:26:48.769Z,99994.06
2018-12-20T03:29:15.260Z,99995.95
2018-12-20T03:31:41.524Z,99993.09
2018-12-20T03:34:07.689Z,99989.04
2018-12-20T03:36:35.233Z,99987.81
2018-12-20T03:39:01.537Z,99989.98
2018-12-20T03:41:27.804Z,99987.98
2018-12-20T03:43:54.480Z,99986.03
2018-12-20T03:46:20.717Z,99986.54
2018-12-20T03:48:46.958Z,99986.06
2018-12-20T03:51:13.576Z,99983.45
2018-12-20T03:53:40.131Z,99985.23
2018-12-20T03:56:06.578Z,99985.83
2018-12-20T03:58:33.502Z,99986.81
2018-12-20T04:00:59.596Z,99990.58
2018-12-20T04:03:26.147Z,99987.30
2018-12-20T04:05:52.739Z,99984.22
2018-12-20T04:08:18.925Z,99983.08
2018-12-20T04:10:45.327Z,99981.70
2018-12-20T04:13:11.967Z,99974.97
2018-12-20T04:15:38.365Z,99973.95
2018-12-20T04:18:04.853Z,99974.03
2018-12-20T04:20:31.393Z,99966.39
2018-12-20T04:22:57.550Z,99962.98
2018-12-20T04:25:23.744Z,99970.50
2018-12-20T04:27:50.136Z,99966.86
2018-12-20T04:30:17.103Z,99967.92
2018-12-20T04:32:43.605Z,99972.16
2018-12-20T04:35:10.022Z,99967.28
2018-12-20T04:37:36.422Z,99969.73
2018-12-20T04:40:04.338Z,99965.28
2018-12-20T04:42:30.771Z,99962.14
2018-12-20T04:44:57.136Z,99963.95
2018-12-20T04:47:23.356Z,99962.45
2018-12-20T04:49:49.786Z,99964.73
2018-12-20T04:52:16.152Z,99962.05
2018-12-20T04:54:42.374Z,99957.17
2018-12-20T04:57:09.408Z,99949.81
2018-12-20T04:59:35.673Z,99955.20
2018-12-20T05:02:01.742Z,99960.08
2018-12-20T05:04:28.079Z,99953.94
2018-12-20T05:06:54.183Z,99956.06
2018-12-20T05:09:20.393Z,99959.89
2018-12-20T05:11:47.017Z,99957.78
2018-12-20T05:14:13.464Z,99955.45
2018-12-20T05:16:39.951Z,99961.05
2018-12-20T05:19:07.110Z,99954.77
2018-12-20T05:21:33.657Z,99954.94
2018-12-20T05:24:00.180Z,99953.50
2018-12-20T05:26:26.768Z,99955.53
2018-12-20T05:28:53.319Z,99958.78
2018-12-20T05:31:19.976Z,99967.75
2018-12-20T05:33:46.518Z,99967.20
2018-12-20T05:36:12.633Z,99972.28
2018-12-20T05:38:38.819Z,99984.06
2018-12-20T05:41:05.308Z,99982.02
2018-12-20T05:43:31.377Z,99986.25
2018-12-20T05:46:04.411Z,99993.63
2018-12-20T05:48:25.875Z,99996.91
2018-12-20T05:50:52.189Z,100000.52
2018-12-20T05:53:18.469Z,99999.25
2018-12-20T05:55:44.776Z,99996.48
2018-12-20T05:58:11.093Z,100000.44
2018-12-20T06:00:37.476Z,99988.09
2018-12-20T06:03:04.052Z,99983.19
2018-12-20T06:05:30.728Z,99984.82
2018-12-20T06:07:56.989Z,99987.88
2018-12-20T06:10:23.625Z,99987.91
2018-12-20T06:12:49.889Z,99980.53
2018-12-20T06:15:16.063Z,99984.36
2018-12-20T06:17:42.615Z,99976.06
2018-12-20T06:20:09.778Z,99977.33
2018-12-20T06:22:36.117Z,99977.67
2018-12-20T06:25:03.065Z,99977.98
2018-12-20T06:27:29.137Z,99986.61
2018-12-20T06:29:55.344Z,99992.13
2018-12-20T06:32:21.670Z,99980.87
2018-12-20T06:34:47.855Z,99980.36
2018-12-20T06:37:14.027Z,99986.58
2018-12-20T06:39:40.568Z,99982.03
2018-12-20T06:42:06.847Z,99989.58
2018-12-20T06:44:32.996Z,99982.52
2018-12-20T06:46:59.299Z,99985.64
2018-12-20T06:49:25.380Z,99978.55
2018-12-20T06:51:51.645Z,99986.48
2018-12-20T06:54:18.193Z,99981.09
2018-12-20T06:56:44.315Z,99978.16
2018-12-20T06:59:10.715Z,99977.53
2018-12-20T07:01:37.089Z,99986.56
2018-12-20T07:04:03.477Z,99987.42
2018-12-20T07:06:29.855Z,99989.03
2018-12-20T07:08:56.177Z,99984.41
2018-12-20T07:11:22.454Z,99982.85
2018-12-20T07:13:48.757Z,99990.34
2018-12-20T07:16:14.885Z,99988.36
2018-12-20T07:18:41.155Z,99992.89
2018-12-20T07:21:07.210Z,99992.14
2018-12-20T07:23:34.814Z,99995.67
2018-12-20T07:26:01.462Z,99986.73
2018-12-20T07:28:27.641Z,99992.11
2018-12-20T07:30:53.766Z,99991.86
2018-12-20T07:33:20.138Z,99988.52
2018-12-20T07:35:46.409Z,99995.28
2018-12-20T07:38:12.877Z,100001.48
2018-12-20T07:40:39.147Z,99993.41
2018-12-20T07:43:05.311Z,99989.42
2018-12-20T07:45:31.855Z,99992.92
2018-12-20T07:47:58.057Z,99991.36
2018-12-20T07:50:24.227Z,99992.34
2018-12-20T07:52:50.721Z,99993.09
2018-12-20T07:55:17.007Z,99999.55
2018-12-20T07:57:43.183Z,99986.95
2018-12-20T08:00:09.813Z,99988.52
2018-12-20T08:02:35.971Z,100000.23
2018-12-20T08:05:07.661Z,99998.34
2018-12-20T08:07:33.930Z,100002.36
2018-12-20T08:10:00.190Z,100005.63
2018-12-20T08:12:26.469Z,100010.64
2018-12-20T08:14:53.361Z,100008.31
2018-12-20T08:17:19.585Z,100005.86
2018-12-20T08:19:45.852Z,100004.96
2018-12-20T08:22:12.721Z,100006.90
2018-12-20T08:24:38.930Z,100008.20
2018-12-20T08:27:05.165Z,100009.45
2018-12-20T08:29:32.090Z,100011.55
2018-12-20T08:31:58.192Z,100012.21
2018-12-20T08:34:24.469Z,100009.63
2018-12-20T08:36:52.025Z,100007.25
2018-12-20T08:39:18.201Z,100012.56
2018-12-20T08:41:44.483Z,100016.27
2018-12-20T08:44:11.486Z,100011.99
2018-12-20T08:46:39.782Z,100015.55
2018-12-20T08:49:05.834Z,100011.99
2018-12-20T08:51:32.057Z,100013.98
2018-12-20T08:53:58.250Z,100022.03
2018-12-20T08:56:24.453Z,100012.34
2018-12-20T08:58:50.901Z,100019.81
2018-12-20T09:01:17.171Z,100015.41
2018-12-20T09:03:43.362Z,100020.98
2018-12-20T09:06:09.672Z,100026.74
2018-12-20T09:08:36.131Z,100022.78
2018-12-20T09:11:06.159Z,100025.19
2018-12-20T09:13:32.938Z,100022.86
2018-12-20T09:15:59.190Z,100017.34
2018-12-20T09:18:25.466Z,100017.84
2018-12-20T09:20:52.140Z,100020.73
2018-12-20T09:23:18.314Z,100023.83
2018-12-20T09:25:44.574Z,100022.17
2018-12-20T09:28:10.927Z,100023.39
2018-12-20T09:30:37.210Z,100025.12
2018-12-20T09:35:41.407Z,100026.47
2018-12-20T09:38:07.475Z,100014.95
2018-12-20T09:40:33.685Z,100017.88
2018-12-20T09:43:01.126Z,100019.80
2018-12-20T09:45:27.355Z,100012.88
2018-12-20T09:47:55.544Z,100009.35
2018-12-20T09:50:22.407Z,100006.58
2018-12-20T09:52:48.743Z,100000.21
2018-12-20T09:55:14.964Z,99993.41
2018-12-20T09:57:41.187Z,99999.19
2018-12-20T10:00:09.591Z,99998.31
2018-12-20T10:02:37.893Z,99994.66
2018-12-20T10:05:04.727Z,99992.37
2018-12-20T10:07:31.091Z,99997.31
2018-12-20T10:09:58.019Z,99986.13
2018-12-20T10:12:24.750Z,99982.80
2018-12-20T10:14:50.961Z,99986.02
2018-12-20T10:17:19.944Z,99991.54
2018-12-20T10:19:46.236Z,99985.91
2018-12-20T10:22:12.421Z,99986.94
2018-12-20T10:24:38.578Z,99972.59
2018-12-20T10:27:05.251Z,99971.16
2018-12-20T10:29:31.431Z,99973.88
2018-12-20T10:31:57.706Z,99970.47
2018-12-20T10:34:24.159Z,99964.36
2018-12-20T10:36:50.346Z,99961.95
2018-12-20T10:39:16.598Z,99964.08
2018-12-20T10:41:43.085Z,99962.02
2018-12-20T10:44:09.367Z,99956.63
2018-12-20T10:46:35.538Z,99959.43
2018-12-20T10:49:01.970Z,99960.59
2018-12-20T10:51:28.145Z,99954.55
2018-12-20T10:53:54.808Z,99952.86
2018-12-20T10:56:21.324Z,99949.81
2018-12-20T10:58:47.473Z,99943.20
2018-12-20T11:01:20.024Z,99935.40
2018-12-20T11:03:47.862Z,99934.91
2018-12-20T11:06:20.141Z,99940.87
2018-12-20T11:08:52.818Z,99937.98
2018-12-20T11:11:19.747Z,99939.50
2018-12-20T11:13:45.899Z,99941.86
2018-12-20T11:16:12.234Z,99932.24
2018-12-20T11:18:38.422Z,99934.92
2018-12-20T11:21:04.592Z,99926.75
2018-12-20T11:23:30.955Z,99929.81
2018-12-20T11:25:57.214Z,99933.09
2018-12-20T11:28:23.262Z,99929.39
2018-12-20T11:30:49.666Z,99921.94
2018-12-20T11:33:15.825Z,99919.16
2018-12-20T11:35:42.405Z,99914.76
2018-12-20T11:38:09.076Z,99913.93
2018-12-20T11:40:35.235Z,99910.42
2018-12-20T11:43:06.204Z,99920.05
2018-12-20T11:45:32.594Z,99909.34
2018-12-20T11:47:58.734Z,99909.57
2018-12-20T11:50:24.990Z,99907.22
2018-12-20T11:52:51.352Z,99911.41
2018-12-20T11:55:17.512Z,99910.05
2018-12-20T11:57:43.678Z,99909.08
2018-12-20T12:00:10.491Z,99898.52
2018-12-20T12:02:36.879Z,99904.02
2018-12-20T12:05:03.554Z,99901.02
2018-12-20T12:07:30.023Z,99896.77
2018-12-20T12:09:56.189Z,99889.83
2018-12-20T12:12:22.675Z,99892.22
2018-12-20T12:14:49.354Z,99894.55
2018-12-20T12:17:15.642Z,99895.88
2018-12-20T12:19:41.765Z,99896.78
2018-12-20T12:22:08.351Z,99895.85
2018-12-20T12:24:34.402Z,99901.02
2018-12-20T12:27:00.801Z,99891.24
2018-12-20T12:29:27.449Z,99890.86
2018-12-20T12:31:53.589Z,99894.53
2018-12-20T12:34:19.790Z,99893.33
2018-12-20T12:36:46.162Z,99894.37
2018-12-20T12:39:12.353Z,99898.55
2018-12-20T12:41:38.646Z,99902.15
2018-12-20T12:44:05.174Z,99902.42
2018-12-20T12:46:31.306Z,99907.00
2018-12-20T12:48:57.616Z,99901.93
2018-12-20T12:51:24.032Z,99903.20
2018-12-20T12:53:50.079Z,99897.73
2018-12-20T12:56:16.216Z,99900.59
2018-12-20T12:58:43.300Z,99906.38
2018-12-20T13:01:09.606Z,99905.55
2018-12-20T13:03:35.785Z,99908.80
2018-12-20T13:06:02.321Z,99908.36
2018-12-20T13:08:28.524Z,99912.73
2018-12-20T13:10:54.777Z,99915.92
2018-12-20T13:13:21.518Z,99909.48
2018-12-20T13:15:47.702Z,99905.52
2018-12-20T13:18:14.188Z,99912.88
2018-12-20T13:20:40.857Z,99906.50
2018-12-20T13:23:07.247Z,99903.06
2018-12-20T13:25:33.516Z,99908.80
2018-12-20T13:28:00.090Z,99912.25
2018-12-20T13:30:26.590Z,99907.91
2018-12-20T13:32:52.659Z,99913.72
2018-12-20T13:35:19.521Z,99912.97
2018-12-20T13:37:48.036Z,99913.22
2018-12-20T13:40:14.201Z,99907.54
2018-12-20T13:42:41.781Z,99909.92
2018-12-20T13:45:09.849Z,99908.87
2018-12-20T13:47:36.040Z,99915.84
2018-12-20T13:50:04.690Z,99910.85
2018-12-20T13:52:32.476Z,99914.55
2018-12-20T13:54:58.683Z,99908.81
2018-12-20T13:57:25.219Z,99911.70
2018-12-20T13:59:51.399Z,99911.94
2018-12-20T14:02:17.659Z,99907.66
2018-12-20T14:04:44.566Z,99913.48
2018-12-20T14:07:10.740Z,99915.13
2018-12-20T14:09:36.974Z,99903.92
2018-12-20T14:12:03.285Z,99909.06
2018-12-20T14:14:29.547Z,99918.13
2018-12-20T14:16:55.819Z,99920.78
2018-12-20T14:19:22.178Z,99919.13
2018-12-20T14:21:48.346Z,99915.20
2018-12-20T14:24:14.615Z,99913.06
2018-12-20T14:26:41.263Z,99904.41
2018-12-20T14:29:07.393Z,99908.80
2018-12-20T14:31:34.233Z,99912.81
2018-12-20T14:34:00.870Z,99916.06
2018-12-20T14:36:27.136Z,99919.18
2018-12-20T14:38:53.319Z,99911.05
2018-12-20T14:41:19.798Z,99912.91
2018-12-20T14:43:45.868Z,99912.72
2018-12-20T14:46:11.969Z,99916.48
2018-12-20T14:48:39.562Z,99926.03
2018-12-20T14:51:06.118Z,99928.25
2018-12-20T14:53:32.319Z,99923.30
2018-12-20T14:55:58.809Z,99923.90
2018-12-20T14:58:25.051Z,99925.70
2018-12-20T15:00:51.499Z,99919.16
2018-12-20T15:03:17.727Z,99920.15
2018-12-20T15:05:43.995Z,99913.03
2018-12-20T15:08:10.394Z,99922.30
2018-12-20T15:10:36.759Z,99927.42
2018-12-20T15:13:03.122Z,99925.49
2018-12-20T15:15:29.253Z,99922.30
2018-12-20T15:17:55.783Z,99927.03
2018-12-20T15:20:22.053Z,99926.05
2018-12-20T15:22:48.210Z,99937.36
2018-12-20T15:25:15.299Z,99922.61
2018-12-20T15:27:41.571Z,99931.28
2018-12-20T15:30:09.895Z,99930.45
2018-12-20T15:32:37.579Z,99935.56
2018-12-20T15:35:03.929Z,99941.38
2018-12-20T15:37:30.220Z,99936.59
2018-12-20T15:39:56.699Z,99933.62
2018-12-20T15:42:22.832Z,99939.32
2018-12-20T15:44:48.983Z,99944.49
2018-12-20T15:47:15.717Z,99944.91
2018-12-20T15:49:43.788Z,99941.95
2018-12-20T15:52:10.299Z,99942.70
2018-12-20T15:54:36.869Z,99946.22
2018-12-20T15:57:03.227Z,99950.27
2018-12-20T15:59:29.602Z,99950.55
2018-12-20T16:01:56.133Z,99946.64
2018-12-20T16:04:22.489Z,99947.31
2018-12-20T16:06:48.595Z,99951.41
2018-12-20T16:09:14.994Z,99947.09
2018-12-20T16:11:41.243Z,99949.13
2018-12-20T16:14:07.478Z,99949.38
2018-12-20T16:16:33.996Z,99952.95
2018-12-20T16:19:04.901Z,99955.00
2018-12-20T16:21:28.262Z,99956.20
2018-12-20T16:23:55.008Z,99956.62
2018-12-20T16:26:21.314Z,99957.20
2018-12-20T16:28:47.625Z,99959.90
2018-12-20T16:31:14.071Z,99964.78
2018-12-20T16:33:41.627Z,99964.56
2018-12-20T16:36:07.916Z,99967.14
2018-12-20T16:38:34.116Z,99966.36
2018-12-20T16:41:00.385Z,99966.59
2018-12-20T16:43:26.557Z,99962.25
2018-12-20T16:45:52.834Z,99962.31
2018-12-20T16:48:21.091Z,99963.86
2018-12-20T16:50:47.242Z,99968.17
2018-12-20T16:53:13.850Z,99968.25
2018-12-20T16:55:39.946Z,99971.11
2018-12-20T16:58:06.111Z,99969.39
2018-12-20T17:00:32.677Z,99971.17
2018-12-20T17:02:58.844Z,99965.36
2018-12-20T17:05:25.118Z,99966.33
2018-12-20T17:07:51.577Z,99962.64
2018-12-20T17:10:17.941Z,99963.42
2018-12-20T17:12:45.250Z,99969.81
2018-12-20T17:15:11.974Z,99960.42
2018-12-20T17:17:38.947Z,99964.00
2018-12-20T17:20:07.408Z,99964.90
2018-12-20T17:22:34.109Z,99955.00
2018-12-20T17:25:00.194Z,99956.95
2018-12-20T17:27:26.454Z,99961.55
2018-12-20T17:29:52.922Z,99958.19
2018-12-20T17:32:19.114Z,99964.03
2018-12-20T17:34:46.098Z,99968.13
2018-12-20T17:37:13.078Z,99967.75
2018-12-20T17:39:39.130Z,99968.48
2018-12-20T17:42:05.394Z,99970.54
2018-12-20T17:44:31.861Z,99969.41
2018-12-20T17:46:58.147Z,99971.05
2018-12-20T17:49:30.517Z,99971.88
2018-12-20T17:51:52.751Z,99971.88
2018-12-20T17:54:18.801Z,99970.54
2018-12-20T17:56:45.064Z,99970.73
2018-12-20T17:59:11.405Z,99967.35
2018-12-20T18:01:37.790Z,99969.83
2018-12-20T18:04:04.056Z,99967.39
2018-12-20T18:06:30.645Z,99970.72
2018-12-20T18:08:56.773Z,99973.60
2018-12-20T18:11:23.066Z,99975.66
2018-12-20T18:13:49.651Z,99972.89
2018-12-20T18:16:15.947Z,99976.52
2018-12-20T18:18:42.406Z,99976.23
2018-12-20T18:21:09.382Z,99977.72
2018-12-20T18:23:37.096Z,99982.04
2018-12-20T18:26:05.007Z,99983.84
2018-12-20T18:28:32.886Z,99982.30
2018-12-20T18:31:00.637Z,99987.17
2018-12-20T18:33:28.334Z,99983.80
2018-12-20T18:35:57.500Z,99985.56
2018-12-20T18:38:25.444Z,99981.61
2018-12-20T18:40:53.575Z,99983.66
2018-12-20T18:43:22.571Z,99982.94
2018-12-20T18:45:50.229Z,99986.14
2018-12-20T18:48:16.680Z,99980.97
2018-12-20T18:50:42.938Z,99984.80
2018-12-20T18:53:09.149Z,99989.97
2018-12-20T18:55:35.487Z,99987.03
2018-12-20T18:58:02.023Z,99984.14
2018-12-20T19:00:28.184Z,99984.61
2018-12-20T19:02:54.442Z,99987.84
2018-12-20T19:05:21.561Z,99989.47
2018-12-20T19:07:47.860Z,99986.64
2018-12-20T19:10:14.219Z,99989.73
2018-12-20T19:12:40.864Z,99980.28
2018-12-20T19:15:07.715Z,99983.39
2018-12-20T19:17:33.918Z,99983.14
2018-12-20T19:20:00.619Z,99983.27
2018-12-20T19:22:26.886Z,99989.52
2018-12-20T19:24:53.026Z,99989.92
2018-12-20T19:27:19.385Z,99987.86
2018-12-20T19:29:45.674Z,99986.61
2018-12-20T19:32:11.923Z,99992.70
2018-12-20T19:34:38.427Z,99985.31
2018-12-20T19:37:05.326Z,99991.23
2018-12-20T19:39:31.526Z,99987.96
2018-12-20T19:42:00.204Z,99984.79
2018-12-20T19:44:26.764Z,99984.46
2018-12-20T19:46:54.386Z,99980.88
2018-12-20T19:49:23.164Z,99977.08
2018-12-20T19:51:51.498Z,99981.20
2018-12-20T19:54:19.930Z,99989.55
2018-12-20T19:56:48.458Z,99985.87
2018-12-20T19:59:16.897Z,99986.11
2018-12-20T20:01:45.588Z,99987.09
2018-12-20T20:04:14.426Z,99987.20
2018-12-20T20:06:42.798Z,99987.58
2018-12-20T20:09:11.262Z,99983.65
2018-12-20T20:11:40.450Z,99989.61
2018-12-20T20:14:08.969Z,99987.16
2018-12-20T20:16:36.830Z,99988.30
2018-12-20T20:19:04.748Z,99992.59
2018-12-20T20:21:33.126Z,99994.47
2018-12-20T20:24:01.052Z,99995.22
2018-12-20T20:26:29.495Z,99999.23
2018-12-20T20:28:56.580Z,99993.37
2018-12-20T20:31:22.929Z,99991.65
2018-12-20T20:33:49.952Z,99991.72
2018-12-20T20:36:16.252Z,99996.66
2018-12-20T20:38:42.877Z,99996.23
2018-12-20T20:41:09.107Z,99991.31
2018-12-20T20:43:35.167Z,99990.98
2018-12-20T20:46:01.448Z,99991.88
2018-12-20T20:48:27.838Z,99988.80
2018-12-20T20:50:53.977Z,99985.92
2018-12-20T20:53:20.260Z,99979.87
2018-12-20T20:55:46.947Z,99977.94
2018-12-20T20:58:13.132Z,99975.48
2018-12-20T21:00:39.424Z,99979.93
2018-12-20T21:03:05.903Z,99976.86
2018-12-20T21:05:32.067Z,99973.75
2018-12-20T21:07:58.251Z,99975.23
2018-12-20T21:10:24.850Z,99985.66
2018-12-20T21:12:51.031Z,99978.37
2018-12-20T21:15:17.459Z,99972.48
2018-12-20T21:17:43.875Z,99980.77
2018-12-20T21:20:10.282Z,99982.92
2018-12-20T21:22:36.560Z,99977.66
2018-12-20T21:25:03.976Z,99981.81
2018-12-20T21:27:30.418Z,99980.19
2018-12-20T21:29:56.607Z,99982.05
2018-12-20T21:32:23.260Z,99985.52
2018-12-20T21:34:49.443Z,99987.56
2018-12-20T21:37:15.519Z,99996.44
2018-12-20T21:39:41.950Z,99990.20
2018-12-20T21:42:11.432Z,99995.47
2018-12-20T21:44:39.626Z,99987.06
2018-12-20T21:47:06.949Z,99983.38
2018-12-20T21:49:33.156Z,99997.91
2018-12-20T21:52:01.507Z,99994.23
2018-12-20T21:54:27.562Z,99997.84
2018-12-20T21:56:53.836Z,100000.47
2018-12-20T21:59:19.989Z,99998.33
2018-12-20T22:01:46.708Z,100001.44
2018-12-20T22:04:12.981Z,99996.13
2018-12-20T22:06:39.140Z,99993.25
2018-12-20T22:09:05.749Z,99996.16
2018-12-20T22:11:31.915Z,99998.77
2018-12-20T22:13:58.123Z,99996.80
2018-12-20T22:16:24.564Z,99995.55
2018-12-20T22:18:50.628Z,99996.73
2018-12-20T22:21:16.864Z,99996.14
2018-12-20T22:23:43.283Z,99991.43
2018-12-20T22:26:09.495Z,99997.58
2018-12-20T22:28:36.055Z,100006.69
2018-12-20T22:31:02.989Z,100003.58
2018-12-20T22:33:29.269Z,100000.29
2018-12-20T22:35:55.724Z,99995.91
2018-12-20T22:38:22.275Z,100001.90
2018-12-20T22:40:48.485Z,99997.48
2018-12-20T22:43:14.565Z,100000.73
2018-12-20T22:45:41.465Z,99994.05
2018-12-20T22:48:07.531Z,99989.78
2018-12-20T22:50:33.718Z,99997.75
2018-12-20T22:53:00.586Z,99992.48
2018-12-20T22:55:26.785Z,99990.28
2018-12-20T22:57:52.941Z,99993.01
2018-12-20T23:00:19.646Z,99985.92
2018-12-20T23:02:45.919Z,99986.73
2018-12-20T23:05:12.496Z,99991.19
2018-12-20T23:07:39.350Z,99991.86
2018-12-20T23:10:06.018Z,99980.47
2018-12-20T23:12:32.298Z,99983.94
2018-12-20T23:14:58.530Z,99978.59
2018-12-20T23:17:24.805Z,99977.15
2018-12-20T23:19:50.959Z,99963.66
2018-12-20T23:22:18.358Z,99968.53
2018-12-20T23:24:44.510Z,99971.49
2018-12-20T23:27:10.832Z,99965.30
2018-12-20T23:29:37.458Z,99966.93
2018-12-20T23:32:03.813Z,99964.89
2018-12-20T23:34:30.077Z,99956.94
2018-12-20T23:36:56.960Z,99964.16
2018-12-20T23:39:23.163Z,99957.51
2018-12-20T23:41:49.313Z,99954.66
2018-12-20T23:44:15.734Z,99961.06
2018-12-20T23:46:42.077Z,99961.41
2018-12-20T23:49:08.257Z,99957.13
2018-12-20T23:51:34.740Z,99960.42
2018-12-20T23:54:01.338Z,99962.11
2018-12-20T23:56:27.782Z,99955.31
2018-12-20T23:58:54.490Z,99960.73
